sensor_id;sensor_type;location;lat;lon;timestamp;pressure;altitude;pressure_sealevel;temperature;humidity
12757;BME280;31601;48.042;12.240;2023-06-14T00:02:03;95701.19;;;13.86;50.22
12757;BME280;31601;48.042;12.240;2023-06-14T00:04:33;95696.56;;;13.82;50.12
12757;BME280;31601;48.042;12.240;2023-06-14T00:07:00;95701.69;;;13.76;50.13
12757;BME280;31601;48.042;12.240;2023-06-14T00:09:26;95709.19;;;13.73;50.14
12757;BME280;31601;48.042;12.240;2023-06-14T00:11:53;95703.13;;;13.72;50.22
12757;BME280;31601;48.042;12.240;2023-06-14T00:14:21;95700.47;;;13.72;50.02
12757;BME280;31601;48.042;12.240;2023-06-14T00:16:47;95702.44;;;13.58;49.16
12757;BME280;31601;48.042;12.240;2023-06-14T00:19:13;95706.28;;;13.56;49.24
12757;BME280;31601;48.042;12.240;2023-06-14T00:21:41;95707.91;;;13.57;49.22
12757;BME280;31601;48.042;12.240;2023-06-14T00:24:08;95705.22;;;13.38;50.38
12757;BME280;31601;48.042;12.240;2023-06-14T00:26:34;95695.31;;;13.34;50.25
12757;BME280;31601;48.042;12.240;2023-06-14T00:29:01;95695.69;;;13.37;50.20
12757;BME280;31601;48.042;12.240;2023-06-14T00:31:29;95697.25;;;13.45;50.08
12757;BME280;31601;48.042;12.240;2023-06-14T00:33:55;95695.88;;;13.42;50.63
12757;BME280;31601;48.042;12.240;2023-06-14T00:36:22;95696.66;;;13.43;50.82
12757;BME280;31601;48.042;12.240;2023-06-14T00:38:48;95697.53;;;13.37;51.26
12757;BME280;31601;48.042;12.240;2023-06-14T00:41:15;95693.47;;;13.34;51.13
12757;BME280;31601;48.042;12.240;2023-06-14T00:43:41;95696.63;;;13.18;51.64
12757;BME280;31601;48.042;12.240;2023-06-14T00:46:08;95703.34;;;13.14;51.61
12757;BME280;31601;48.042;12.240;2023-06-14T00:48:36;95699.34;;;13.04;51.99
12757;BME280;31601;48.042;12.240;2023-06-14T00:51:03;95698.50;;;13.11;51.84
12757;BME280;31601;48.042;12.240;2023-06-14T00:53:30;95704.75;;;13.10;52.24
12757;BME280;31601;48.042;12.240;2023-06-14T00:55:59;95705.81;;;13.08;52.57
12757;BME280;31601;48.042;12.240;2023-06-14T00:58:26;95704.19;;;13.07;52.55
12757;BME280;31601;48.042;12.240;2023-06-14T01:00:53;95697.69;;;13.10;52.37
12757;BME280;31601;48.042;12.240;2023-06-14T01:03:20;95705.03;;;13.01;52.77
12757;BME280;31601;48.042;12.240;2023-06-14T01:05:49;95709.50;;;12.94;52.95
12757;BME280;31601;48.042;12.240;2023-06-14T01:08:22;95703.66;;;12.92;53.11
12757;BME280;31601;48.042;12.240;2023-06-14T01:10:53;95706.28;;;12.92;53.03
12757;BME280;31601;48.042;12.240;2023-06-14T01:13:27;95701.41;;;12.96;53.05
12757;BME280;31601;48.042;12.240;2023-06-14T01:15:56;95700.03;;;12.93;52.98
12757;BME280;31601;48.042;12.240;2023-06-14T01:18:22;95705.50;;;12.92;53.11
12757;BME280;31601;48.042;12.240;2023-06-14T01:20:50;95708.75;;;12.87;52.99
12757;BME280;31601;48.042;12.240;2023-06-14T01:23:22;95702.66;;;12.86;53.18
12757;BME280;31601;48.042;12.240;2023-06-14T01:25:49;95701.91;;;12.79;53.43
12757;BME280;31601;48.042;12.240;2023-06-14T01:28:18;95700.28;;;12.78;53.50
12757;BME280;31601;48.042;12.240;2023-06-14T01:30:47;95704.13;;;12.82;53.42
12757;BME280;31601;48.042;12.240;2023-06-14T01:33:16;95701.50;;;12.76;53.46
12757;BME280;31601;48.042;12.240;2023-06-14T01:35:46;95704.66;;;12.59;53.93
12757;BME280;31601;48.042;12.240;2023-06-14T01:38:14;95697.75;;;12.58;53.87
12757;BME280;31601;48.042;12.240;2023-06-14T01:40:44;95697.38;;;12.54;53.91
12757;BME280;31601;48.042;12.240;2023-06-14T01:43:11;95693.75;;;12.49;54.09
12757;BME280;31601;48.042;12.240;2023-06-14T01:45:40;95695.03;;;12.33;54.62
12757;BME280;31601;48.042;12.240;2023-06-14T01:48:07;95700.50;;;12.31;54.77
12757;BME280;31601;48.042;12.240;2023-06-14T01:50:33;95699.06;;;12.35;54.64
12757;BME280;31601;48.042;12.240;2023-06-14T01:53:00;95697.66;;;12.26;55.04
12757;BME280;31601;48.042;12.240;2023-06-14T01:55:26;95694.84;;;12.21;55.44
12757;BME280;31601;48.042;12.240;2023-06-14T01:57:54;95691.81;;;12.24;55.42
12757;BME280;31601;48.042;12.240;2023-06-14T02:00:21;95692.59;;;12.25;55.29
12757;BME280;31601;48.042;12.240;2023-06-14T02:02:47;95697.66;;;12.26;55.17
12757;BME280;31601;48.042;12.240;2023-06-14T02:05:14;95698.06;;;12.23;55.33
12757;BME280;31601;48.042;12.240;2023-06-14T02:07:44;95703.75;;;12.20;55.39
12757;BME280;31601;48.042;12.240;2023-06-14T02:10:10;95703.16;;;12.18;55.59
12757;BME280;31601;48.042;12.240;2023-06-14T02:12:37;95708.41;;;12.18;55.72
12757;BME280;31601;48.042;12.240;2023-06-14T02:15:06;95707.63;;;12.11;56.14
12757;BME280;31601;48.042;12.240;2023-06-14T02:17:32;95708.84;;;12.15;56.09
12757;BME280;31601;48.042;12.240;2023-06-14T02:19:59;95709.25;;;12.12;56.56
12757;BME280;31601;48.042;12.240;2023-06-14T02:22:26;95707.81;;;12.16;56.36
12757;BME280;31601;48.042;12.240;2023-06-14T02:24:52;95703.56;;;12.15;56.31
12757;BME280;31601;48.042;12.240;2023-06-14T02:27:18;95707.81;;;12.16;56.21
12757;BME280;31601;48.042;12.240;2023-06-14T02:29:45;95706.63;;;12.12;56.20
12757;BME280;31601;48.042;12.240;2023-06-14T02:32:13;95704.41;;;12.09;56.22
12757;BME280;31601;48.042;12.240;2023-06-14T02:34:39;95704.81;;;12.06;56.13
12757;BME280;31601;48.042;12.240;2023-06-14T02:37:07;95705.00;;;12.04;56.04
12757;BME280;31601;48.042;12.240;2023-06-14T02:39:34;95707.03;;;12.09;55.84
12757;BME280;31601;48.042;12.240;2023-06-14T02:42:01;95705.81;;;12.05;55.95
12757;BME280;31601;48.042;12.240;2023-06-14T02:44:27;95704.63;;;12.00;56.05
12757;BME280;31601;48.042;12.240;2023-06-14T02:46:54;95705.00;;;11.91;56.07
12757;BME280;31601;48.042;12.240;2023-06-14T02:49:22;95704.41;;;11.95;55.72
12757;BME280;31601;48.042;12.240;2023-06-14T02:51:48;95703.19;;;11.91;55.88
12757;BME280;31601;48.042;12.240;2023-06-14T02:54:15;95703.59;;;11.88;56.16
12757;BME280;31601;48.042;12.240;2023-06-14T02:56:41;95700.56;;;11.78;56.87
12757;BME280;31601;48.042;12.240;2023-06-14T02:59:08;95707.03;;;11.75;57.50
12757;BME280;31601;48.042;12.240;2023-06-14T03:01:35;95707.69;;;11.37;58.68
12757;BME280;31601;48.042;12.240;2023-06-14T03:04:06;95715.31;;;10.99;59.74
12757;BME280;31601;48.042;12.240;2023-06-14T03:06:34;95708.22;;;11.06;59.19
12757;BME280;31601;48.042;12.240;2023-06-14T03:09:00;95706.03;;;11.16;58.61
12757;BME280;31601;48.042;12.240;2023-06-14T03:11:29;95709.47;;;11.23;58.16
12757;BME280;31601;48.042;12.240;2023-06-14T03:13:56;95711.88;;;11.05;58.32
12757;BME280;31601;48.042;12.240;2023-06-14T03:16:22;95709.66;;;11.08;58.21
12757;BME280;31601;48.042;12.240;2023-06-14T03:18:50;95716.91;;;11.00;58.62
12757;BME280;31601;48.042;12.240;2023-06-14T03:21:17;95714.69;;;11.03;58.19
12757;BME280;31601;48.042;12.240;2023-06-14T03:23:47;95720.34;;;11.07;58.66
12757;BME280;31601;48.042;12.240;2023-06-14T03:26:14;95715.50;;;11.04;58.41
12757;BME280;31601;48.042;12.240;2023-06-14T03:28:43;95724.16;;;10.98;58.75
12757;BME280;31601;48.042;12.240;2023-06-14T03:31:09;95724.75;;;10.93;59.24
12757;BME280;31601;48.042;12.240;2023-06-14T03:33:36;95726.38;;;10.94;59.36
12757;BME280;31601;48.042;12.240;2023-06-14T03:36:02;95733.84;;;10.90;59.67
12757;BME280;31601;48.042;12.240;2023-06-14T03:38:29;95732.84;;;10.91;59.62
12757;BME280;31601;48.042;12.240;2023-06-14T03:40:57;95742.00;;;10.54;60.87
12757;BME280;31601;48.042;12.240;2023-06-14T03:43:23;95741.22;;;10.60;60.78
12757;BME280;31601;48.042;12.240;2023-06-14T03:45:50;95744.75;;;10.39;61.49
12757;BME280;31601;48.042;12.240;2023-06-14T03:48:16;95757.75;;;10.54;60.65
12757;BME280;31601;48.042;12.240;2023-06-14T03:50:43;95756.41;;;10.78;60.24
12757;BME280;31601;48.042;12.240;2023-06-14T03:53:09;95753.81;;;10.85;59.81
12757;BME280;31601;48.042;12.240;2023-06-14T03:55:36;95752.25;;;11.04;59.31
12757;BME280;31601;48.042;12.240;2023-06-14T03:58:04;95753.72;;;11.26;59.11
12757;BME280;31601;48.042;12.240;2023-06-14T04:00:31;95751.91;;;11.47;58.85
12757;BME280;31601;48.042;12.240;2023-06-14T04:02:58;95751.34;;;11.65;58.56
12757;BME280;31601;48.042;12.240;2023-06-14T04:05:24;95752.13;;;11.86;58.11
12757;BME280;31601;48.042;12.240;2023-06-14T04:07:51;95762.06;;;12.04;58.07
12757;BME280;31601;48.042;12.240;2023-06-14T04:10:21;95748.66;;;12.25;57.58
12757;BME280;31601;48.042;12.240;2023-06-14T04:12:48;95758.38;;;12.31;58.06
12757;BME280;31601;48.042;12.240;2023-06-14T04:15:15;95769.59;;;12.59;57.70
12757;BME280;31601;48.042;12.240;2023-06-14T04:17:42;95771.44;;;12.58;57.69
12757;BME280;31601;48.042;12.240;2023-06-14T04:20:09;95773.81;;;12.66;57.20
12757;BME280;31601;48.042;12.240;2023-06-14T04:22:36;95765.44;;;12.96;56.69
12757;BME280;31601;48.042;12.240;2023-06-14T04:25:03;95774.19;;;13.22;55.87
12757;BME280;31601;48.042;12.240;2023-06-14T04:27:31;95773.94;;;13.37;55.20
12757;BME280;31601;48.042;12.240;2023-06-14T04:30:01;95779.13;;;13.50;54.30
12757;BME280;31601;48.042;12.240;2023-06-14T04:32:30;95779.66;;;13.59;54.05
12757;BME280;31601;48.042;12.240;2023-06-14T04:34:58;95773.78;;;13.89;53.24
12757;BME280;31601;48.042;12.240;2023-06-14T04:37:27;95774.13;;;14.36;52.27
12757;BME280;31601;48.042;12.240;2023-06-14T04:39:54;95779.19;;;14.63;51.20
12757;BME280;31601;48.042;12.240;2023-06-14T04:42:21;95782.53;;;14.89;50.40
12757;BME280;31601;48.042;12.240;2023-06-14T04:44:50;95784.19;;;15.20;50.31
12757;BME280;31601;48.042;12.240;2023-06-14T04:47:20;95787.41;;;15.52;49.25
12757;BME280;31601;48.042;12.240;2023-06-14T04:49:47;95793.19;;;15.73;48.33
12757;BME280;31601;48.042;12.240;2023-06-14T04:52:16;95791.28;;;15.92;47.45
12757;BME280;31601;48.042;12.240;2023-06-14T04:54:46;95789.31;;;15.87;46.94
12757;BME280;31601;48.042;12.240;2023-06-14T04:57:12;95789.56;;;16.09;47.26
12757;BME280;31601;48.042;12.240;2023-06-14T04:59:42;95793.72;;;16.17;47.46
12757;BME280;31601;48.042;12.240;2023-06-14T05:02:09;95795.91;;;16.32;47.56
12757;BME280;31601;48.042;12.240;2023-06-14T05:04:37;95802.59;;;16.23;48.95
12757;BME280;31601;48.042;12.240;2023-06-14T05:07:06;95796.13;;;16.31;48.10
12757;BME280;31601;48.042;12.240;2023-06-14T05:09:33;95798.22;;;16.17;49.94
12757;BME280;31601;48.042;12.240;2023-06-14T05:11:59;95798.88;;;15.88;49.62
12757;BME280;31601;48.042;12.240;2023-06-14T05:14:26;95793.34;;;16.02;49.28
12757;BME280;31601;48.042;12.240;2023-06-14T05:16:52;95792.44;;;16.08;49.57
12757;BME280;31601;48.042;12.240;2023-06-14T05:19:19;95803.13;;;15.89;50.24
12757;BME280;31601;48.042;12.240;2023-06-14T05:21:45;95803.91;;;15.78;50.66
12757;BME280;31601;48.042;12.240;2023-06-14T05:24:14;95806.00;;;16.00;50.03
12757;BME280;31601;48.042;12.240;2023-06-14T05:26:42;95802.91;;;16.26;50.38
12757;BME280;31601;48.042;12.240;2023-06-14T05:29:08;95805.00;;;16.24;50.20
12757;BME280;31601;48.042;12.240;2023-06-14T05:31:35;95808.44;;;16.60;48.97
12757;BME280;31601;48.042;12.240;2023-06-14T05:34:01;95800.44;;;17.08;46.88
12757;BME280;31601;48.042;12.240;2023-06-14T05:36:28;95805.81;;;17.13;46.55
12757;BME280;31601;48.042;12.240;2023-06-14T05:38:54;95807.97;;;17.28;45.94
12757;BME280;31601;48.042;12.240;2023-06-14T05:41:24;95806.22;;;17.33;44.98
12757;BME280;31601;48.042;12.240;2023-06-14T05:43:51;95799.84;;;17.34;43.99
12757;BME280;31601;48.042;12.240;2023-06-14T05:46:17;95810.47;;;17.63;43.38
12757;BME280;31601;48.042;12.240;2023-06-14T05:48:47;95807.31;;;17.66;43.73
12757;BME280;31601;48.042;12.240;2023-06-14T05:51:13;95813.69;;;17.36;45.08
12757;BME280;31601;48.042;12.240;2023-06-14T05:53:44;95813.25;;;16.75;45.96
12757;BME280;31601;48.042;12.240;2023-06-14T05:56:10;95815.78;;;16.94;46.80
12757;BME280;31601;48.042;12.240;2023-06-14T05:58:38;95814.31;;;16.86;45.74
12757;BME280;31601;48.042;12.240;2023-06-14T06:01:04;95809.63;;;17.17;45.28
12757;BME280;31601;48.042;12.240;2023-06-14T06:03:31;95809.88;;;17.04;45.49
12757;BME280;31601;48.042;12.240;2023-06-14T06:05:58;95806.06;;;17.40;45.13
12757;BME280;31601;48.042;12.240;2023-06-14T06:08:26;95813.19;;;17.23;44.80
12757;BME280;31601;48.042;12.240;2023-06-14T06:10:52;95809.75;;;17.39;44.76
12757;BME280;31601;48.042;12.240;2023-06-14T06:13:19;95818.91;;;17.89;44.09
12757;BME280;31601;48.042;12.240;2023-06-14T06:15:46;95819.94;;;17.30;45.17
12757;BME280;31601;48.042;12.240;2023-06-14T06:18:13;95819.81;;;17.83;43.97
12757;BME280;31601;48.042;12.240;2023-06-14T06:20:40;95814.84;;;18.37;43.42
12757;BME280;31601;48.042;12.240;2023-06-14T06:23:06;95831.41;;;17.77;44.16
12757;BME280;31601;48.042;12.240;2023-06-14T06:25:35;95812.41;;;18.53;43.19
12757;BME280;31601;48.042;12.240;2023-06-14T06:28:02;95824.19;;;18.57;43.04
12757;BME280;31601;48.042;12.240;2023-06-14T06:30:28;95822.06;;;18.98;42.81
12757;BME280;31601;48.042;12.240;2023-06-14T06:32:56;95831.41;;;18.61;42.68
12757;BME280;31601;48.042;12.240;2023-06-14T06:35:23;95824.75;;;18.81;40.38
12757;BME280;31601;48.042;12.240;2023-06-14T06:37:49;95831.53;;;18.72;40.40
12757;BME280;31601;48.042;12.240;2023-06-14T06:40:16;95823.59;;;19.38;39.54
12757;BME280;31601;48.042;12.240;2023-06-14T06:42:42;95831.25;;;19.57;39.44
12757;BME280;31601;48.042;12.240;2023-06-14T06:45:09;95831.09;;;19.68;39.06
12757;BME280;31601;48.042;12.240;2023-06-14T06:47:36;95826.09;;;19.23;39.61
12757;BME280;31601;48.042;12.240;2023-06-14T06:50:05;95826.31;;;19.93;38.40
12757;BME280;31601;48.042;12.240;2023-06-14T06:52:32;95830.81;;;20.25;37.51
12757;BME280;31601;48.042;12.240;2023-06-14T06:54:59;95831.22;;;20.44;37.47
12757;BME280;31601;48.042;12.240;2023-06-14T06:57:25;95831.78;;;20.88;37.44
12757;BME280;31601;48.042;12.240;2023-06-14T06:59:54;95831.88;;;21.14;36.70
12757;BME280;31601;48.042;12.240;2023-06-14T07:02:20;95828.53;;;20.81;35.93
12757;BME280;31601;48.042;12.240;2023-06-14T07:04:47;95835.53;;;20.92;36.67
12757;BME280;31601;48.042;12.240;2023-06-14T07:07:14;95835.53;;;20.92;36.55
12757;BME280;31601;48.042;12.240;2023-06-14T07:09:41;95836.53;;;20.76;37.05
12757;BME280;31601;48.042;12.240;2023-06-14T07:12:08;95844.31;;;20.50;38.88
12757;BME280;31601;48.042;12.240;2023-06-14T07:14:35;95840.13;;;20.60;39.51
12757;BME280;31601;48.042;12.240;2023-06-14T07:17:02;95846.50;;;20.58;38.44
12757;BME280;31601;48.042;12.240;2023-06-14T07:19:29;95841.94;;;20.16;38.81
12757;BME280;31601;48.042;12.240;2023-06-14T07:21:55;95841.66;;;20.50;38.91
12757;BME280;31601;48.042;12.240;2023-06-14T07:24:24;95848.63;;;20.56;37.44
12757;BME280;31601;48.042;12.240;2023-06-14T07:26:51;95844.09;;;20.57;37.91
12757;BME280;31601;48.042;12.240;2023-06-14T07:29:17;95853.72;;;20.63;37.84
12757;BME280;31601;48.042;12.240;2023-06-14T07:31:44;95851.53;;;20.50;38.02
12757;BME280;31601;48.042;12.240;2023-06-14T07:34:11;95846.75;;;20.95;37.52
12757;BME280;31601;48.042;12.240;2023-06-14T07:36:37;95844.34;;;20.93;37.40
12757;BME280;31601;48.042;12.240;2023-06-14T07:39:04;95840.78;;;21.40;37.50
12757;BME280;31601;48.042;12.240;2023-06-14T07:41:32;95845.47;;;21.13;37.15
12757;BME280;31601;48.042;12.240;2023-06-14T07:43:59;95852.69;;;21.12;36.93
12757;BME280;31601;48.042;12.240;2023-06-14T07:46:25;95848.66;;;21.83;36.45
12757;BME280;31601;48.042;12.240;2023-06-14T07:48:52;95839.47;;;21.43;37.37
12757;BME280;31601;48.042;12.240;2023-06-14T07:51:18;95851.28;;;21.57;37.39
12757;BME280;31601;48.042;12.240;2023-06-14T07:53:45;95851.38;;;22.29;35.72
12757;BME280;31601;48.042;12.240;2023-06-14T07:56:11;95854.03;;;22.55;34.99
12757;BME280;31601;48.042;12.240;2023-06-14T07:58:39;95850.31;;;22.56;34.79
12757;BME280;31601;48.042;12.240;2023-06-14T08:01:05;95852.41;;;22.64;35.56
12757;BME280;31601;48.042;12.240;2023-06-14T08:03:33;95846.56;;;22.37;34.73
12757;BME280;31601;48.042;12.240;2023-06-14T08:06:00;95855.09;;;22.18;35.17
12757;BME280;31601;48.042;12.240;2023-06-14T08:08:26;95848.59;;;21.52;36.20
12757;BME280;31601;48.042;12.240;2023-06-14T08:10:53;95855.09;;;21.92;36.70
12757;BME280;31601;48.042;12.240;2023-06-14T08:13:20;95854.56;;;21.95;37.89
12757;BME280;31601;48.042;12.240;2023-06-14T08:15:47;95862.84;;;22.25;36.49
12757;BME280;31601;48.042;12.240;2023-06-14T08:18:14;95852.97;;;22.61;35.03
12757;BME280;31601;48.042;12.240;2023-06-14T08:20:40;95843.25;;;23.12;34.26
12757;BME280;31601;48.042;12.240;2023-06-14T08:23:07;95842.75;;;22.89;33.58
12757;BME280;31601;48.042;12.240;2023-06-14T08:25:34;95849.44;;;22.92;32.35
12757;BME280;31601;48.042;12.240;2023-06-14T08:28:00;95846.91;;;23.31;32.53
12757;BME280;31601;48.042;12.240;2023-06-14T08:30:27;95849.53;;;23.41;32.49
12757;BME280;31601;48.042;12.240;2023-06-14T08:32:54;95849.63;;;23.76;32.47
12757;BME280;31601;48.042;12.240;2023-06-14T08:35:21;95853.41;;;23.70;31.35
12757;BME280;31601;48.042;12.240;2023-06-14T08:37:49;95855.66;;;23.97;32.41
12757;BME280;31601;48.042;12.240;2023-06-14T08:40:20;95854.53;;;23.58;31.05
12757;BME280;31601;48.042;12.240;2023-06-14T08:42:48;95858.97;;;23.84;30.31
12757;BME280;31601;48.042;12.240;2023-06-14T08:45:16;95870.47;;;23.29;31.16
12757;BME280;31601;48.042;12.240;2023-06-14T08:47:42;95863.00;;;23.81;31.43
12757;BME280;31601;48.042;12.240;2023-06-14T08:50:12;95873.44;;;23.22;31.38
12757;BME280;31601;48.042;12.240;2023-06-14T08:52:45;95875.91;;;22.93;31.01
12757;BME280;31601;48.042;12.240;2023-06-14T08:55:16;95880.22;;;22.58;30.29
12757;BME280;31601;48.042;12.240;2023-06-14T08:57:46;95876.75;;;22.32;31.42
12757;BME280;31601;48.042;12.240;2023-06-14T09:00:13;95863.81;;;23.27;31.76
12757;BME280;31601;48.042;12.240;2023-06-14T09:02:40;95867.59;;;23.70;31.51
12757;BME280;31601;48.042;12.240;2023-06-14T09:05:09;95870.31;;;22.69;31.04
12757;BME280;31601;48.042;12.240;2023-06-14T09:07:37;95875.38;;;22.91;28.15
12757;BME280;31601;48.042;12.240;2023-06-14T09:10:07;95873.50;;;22.92;29.10
12757;BME280;31601;48.042;12.240;2023-06-14T09:12:34;95873.22;;;22.93;29.36
12757;BME280;31601;48.042;12.240;2023-06-14T09:15:01;95869.56;;;23.54;30.52
12757;BME280;31601;48.042;12.240;2023-06-14T09:17:32;95861.25;;;23.56;29.96
12757;BME280;31601;48.042;12.240;2023-06-14T09:19:58;95866.41;;;23.37;29.63
12757;BME280;31601;48.042;12.240;2023-06-14T09:22:25;95872.09;;;23.25;28.65
12757;BME280;31601;48.042;12.240;2023-06-14T09:24:53;95873.47;;;23.17;30.08
12757;BME280;31601;48.042;12.240;2023-06-14T09:27:20;95874.03;;;22.88;29.79
12757;BME280;31601;48.042;12.240;2023-06-14T09:29:46;95883.91;;;23.09;28.63
12757;BME280;31601;48.042;12.240;2023-06-14T09:32:13;95877.19;;;23.21;28.84
12757;BME280;31601;48.042;12.240;2023-06-14T09:34:40;95880.63;;;23.37;28.86
12757;BME280;31601;48.042;12.240;2023-06-14T09:37:07;95867.28;;;23.82;29.98
12757;BME280;31601;48.042;12.240;2023-06-14T09:39:33;95886.00;;;23.27;28.61
12757;BME280;31601;48.042;12.240;2023-06-14T09:42:01;95886.47;;;23.50;30.11
12757;BME280;31601;48.042;12.240;2023-06-14T09:44:43;95888.22;;;22.74;30.95
12757;BME280;31601;48.042;12.240;2023-06-14T09:47:09;95885.03;;;22.61;30.85
12757;BME280;31601;48.042;12.240;2023-06-14T09:49:36;95887.16;;;22.85;30.08
12757;BME280;31601;48.042;12.240;2023-06-14T09:52:03;95889.06;;;22.64;30.60
12757;BME280;31601;48.042;12.240;2023-06-14T09:54:30;95888.22;;;22.74;31.22
12757;BME280;31601;48.042;12.240;2023-06-14T09:56:58;95881.47;;;23.22;30.89
12757;BME280;31601;48.042;12.240;2023-06-14T09:59:29;95878.31;;;23.70;29.21
12757;BME280;31601;48.042;12.240;2023-06-14T10:01:58;95879.41;;;24.14;28.66
12757;BME280;31601;48.042;12.240;2023-06-14T10:04:25;95903.00;;;23.57;28.46
12757;BME280;31601;48.042;12.240;2023-06-14T10:06:54;95889.53;;;23.02;28.63
12757;BME280;31601;48.042;12.240;2023-06-14T10:09:21;95883.72;;;22.74;29.35
12757;BME280;31601;48.042;12.240;2023-06-14T10:11:48;95880.69;;;23.12;28.90
12757;BME280;31601;48.042;12.240;2023-06-14T10:14:15;95874.22;;;23.33;29.58
12757;BME280;31601;48.042;12.240;2023-06-14T10:16:52;95872.75;;;23.56;29.60
12757;BME280;31601;48.042;12.240;2023-06-14T10:19:25;95867.91;;;23.64;29.17
12757;BME280;31601;48.042;12.240;2023-06-14T10:22:02;95876.88;;;23.93;28.57
12757;BME280;31601;48.042;12.240;2023-06-14T10:24:31;95878.84;;;23.72;28.33
12757;BME280;31601;48.042;12.240;2023-06-14T10:26:59;95873.53;;;24.12;28.01
12757;BME280;31601;48.042;12.240;2023-06-14T10:29:26;95871.97;;;23.51;28.54
12757;BME280;31601;48.042;12.240;2023-06-14T10:31:59;95878.03;;;23.12;29.03
12757;BME280;31601;48.042;12.240;2023-06-14T10:34:27;95870.31;;;23.65;28.51
12757;BME280;31601;48.042;12.240;2023-06-14T10:37:01;95864.88;;;23.86;28.42
12757;BME280;31601;48.042;12.240;2023-06-14T10:39:29;95862.47;;;24.24;26.91
12757;BME280;31601;48.042;12.240;2023-06-14T10:41:57;95862.41;;;23.94;28.16
12757;BME280;31601;48.042;12.240;2023-06-14T10:44:33;95858.72;;;23.85;28.40
12757;BME280;31601;48.042;12.240;2023-06-14T10:47:07;95856.69;;;24.06;26.03
12757;BME280;31601;48.042;12.240;2023-06-14T10:49:42;95862.06;;;23.56;27.38
12757;BME280;31601;48.042;12.240;2023-06-14T10:52:11;95862.59;;;24.08;26.00
12757;BME280;31601;48.042;12.240;2023-06-14T10:55:04;95856.22;;;23.94;26.05
12757;BME280;31601;48.042;12.240;2023-06-14T10:57:38;95869.31;;;23.51;26.86
12757;BME280;31601;48.042;12.240;2023-06-14T11:00:06;95864.97;;;23.65;26.85
12757;BME280;31601;48.042;12.240;2023-06-14T11:05:48;95863.84;;;24.51;25.38
12757;BME280;31601;48.042;12.240;2023-06-14T11:11:22;95856.50;;;24.91;26.16
12757;BME280;31601;48.042;12.240;2023-06-14T11:13:48;95840.59;;;24.99;26.28
12757;BME280;31601;48.042;12.240;2023-06-14T11:16:16;95855.28;;;24.14;25.80
12757;BME280;31601;48.042;12.240;2023-06-14T11:18:44;95850.47;;;24.16;26.63
12757;BME280;31601;48.042;12.240;2023-06-14T11:21:19;95859.97;;;23.48;26.36
12757;BME280;31601;48.042;12.240;2023-06-14T11:23:49;95869.84;;;23.48;26.66
12757;BME280;31601;48.042;12.240;2023-06-14T11:26:24;95850.63;;;23.90;26.90
12757;BME280;31601;48.042;12.240;2023-06-14T11:28:55;95853.25;;;24.01;25.87
12757;BME280;31601;48.042;12.240;2023-06-14T11:31:29;95854.00;;;24.06;26.44
12757;BME280;31601;48.042;12.240;2023-06-14T11:33:57;95854.41;;;24.88;26.99
12757;BME280;31601;48.042;12.240;2023-06-14T11:36:26;95843.16;;;24.27;24.97
12757;BME280;31601;48.042;12.240;2023-06-14T11:38:58;95848.66;;;24.41;26.33
12757;BME280;31601;48.042;12.240;2023-06-14T11:41:24;95849.09;;;24.82;24.22
12757;BME280;31601;48.042;12.240;2023-06-14T11:43:52;95848.06;;;24.78;24.23
12757;BME280;31601;48.042;12.240;2023-06-14T11:46:19;95840.28;;;24.77;25.04
12757;BME280;31601;48.042;12.240;2023-06-14T11:48:51;95830.19;;;25.41;23.79
12757;BME280;31601;48.042;12.240;2023-06-14T11:51:18;95836.22;;;25.28;23.33
12757;BME280;31601;48.042;12.240;2023-06-14T11:53:45;95828.75;;;25.49;23.10
12757;BME280;31601;48.042;12.240;2023-06-14T11:56:12;95829.03;;;25.85;24.41
12757;BME280;31601;48.042;12.240;2023-06-14T11:58:39;95829.69;;;25.77;24.56
12757;BME280;31601;48.042;12.240;2023-06-14T12:01:05;95831.16;;;25.50;24.78
12757;BME280;31601;48.042;12.240;2023-06-14T12:03:32;95833.06;;;25.69;24.17
12757;BME280;31601;48.042;12.240;2023-06-14T12:06:04;95823.53;;;25.77;23.20
12757;BME280;31601;48.042;12.240;2023-06-14T12:08:34;95826.13;;;25.44;23.93
12757;BME280;31601;48.042;12.240;2023-06-14T12:11:05;95839.47;;;24.47;25.05
12757;BME280;31601;48.042;12.240;2023-06-14T12:13:33;95833.00;;;24.53;25.05
12757;BME280;31601;48.042;12.240;2023-06-14T12:16:01;95838.06;;;23.86;26.33
12757;BME280;31601;48.042;12.240;2023-06-14T12:18:34;95830.31;;;24.19;25.35
12757;BME280;31601;48.042;12.240;2023-06-14T12:21:03;95832.50;;;24.17;26.42
12757;BME280;31601;48.042;12.240;2023-06-14T12:23:45;95831.50;;;24.07;25.76
12757;BME280;31601;48.042;12.240;2023-06-14T12:26:15;95819.53;;;24.29;26.25
12757;BME280;31601;48.042;12.240;2023-06-14T12:28:42;95814.34;;;24.08;25.18
12757;BME280;31601;48.042;12.240;2023-06-14T12:31:09;95831.66;;;24.51;25.91
12757;BME280;31601;48.042;12.240;2023-06-14T12:33:36;95826.13;;;24.71;24.52
12757;BME280;31601;48.042;12.240;2023-06-14T12:36:05;95834.94;;;24.77;24.00
12757;BME280;31601;48.042;12.240;2023-06-14T12:38:33;95826.94;;;24.72;25.48
12757;BME280;31601;48.042;12.240;2023-06-14T12:40:59;95819.28;;;24.60;24.03
12757;BME280;31601;48.042;12.240;2023-06-14T12:43:26;95826.03;;;24.81;23.61
12757;BME280;31601;48.042;12.240;2023-06-14T12:45:53;95827.25;;;24.65;24.96
12757;BME280;31601;48.042;12.240;2023-06-14T12:48:20;95823.06;;;24.83;24.06
12757;BME280;31601;48.042;12.240;2023-06-14T12:50:47;95822.50;;;25.10;24.24
12757;BME280;31601;48.042;12.240;2023-06-14T12:53:15;95825.25;;;25.29;24.40
12757;BME280;31601;48.042;12.240;2023-06-14T12:55:42;95823.38;;;25.49;24.64
12757;BME280;31601;48.042;12.240;2023-06-14T12:58:08;95825.09;;;25.15;23.20
12757;BME280;31601;48.042;12.240;2023-06-14T13:00:37;95822.16;;;25.41;23.08